Time;durP1;ratioP1;P1;durP2;ratioP2;P2;SDS_P1;SDS_P2;PMS_P1;PMS_P2;Temp;Humidity;BMP_temperature;BMP_pressure;BME280_temperature;BME280_humidity;BME280_pressure;Samples;Min_cycle;Max_cycle;Signal;HPM_P1;HPM_P2
2024/03/16 00:02:05;;;;;;;9.60;7.53;;;10.80;99.90;;;;;;5052078;28;20231;-47
2024/03/16 00:04:32;;;;;;;7.90;6.00;;;10.80;99.90;;;;;;5073471;28;20219;-49
2024/03/16 00:06:59;;;;;;;10.80;6.43;;;10.80;99.90;;;;;;5058228;28;20190;-49
2024/03/16 00:09:26;;;;;;;11.30;6.67;;;10.80;99.90;;;;;;5032539;28;20202;-52
2024/03/16 00:11:54;;;;;;;7.43;6.37;;;10.80;99.90;;;;;;5067170;28;20245;-49
2024/03/16 00:14:21;;;;;;;10.43;6.30;;;10.80;99.90;;;;;;5054966;28;20215;-50
2024/03/16 00:16:49;;;;;;;8.80;6.43;;;10.80;99.90;;;;;;5055116;28;20313;-49
2024/03/16 00:19:17;;;;;;;9.23;7.30;;;10.80;99.90;;;;;;5061201;28;20199;-51
2024/03/16 00:21:45;;;;;;;12.47;6.70;;;10.80;99.90;;;;;;5046872;28;20221;-51
2024/03/16 00:24:13;;;;;;;7.37;6.50;;;10.80;99.90;;;;;;5053115;28;20256;-48
2024/03/16 00:26:40;;;;;;;10.37;6.23;;;10.80;99.90;;;;;;5032632;28;20211;-51
2024/03/16 00:29:07;;;;;;;11.07;6.30;;;10.80;99.90;;;;;;5057996;28;20236;-49
2024/03/16 00:31:34;;;;;;;12.60;6.17;;;10.80;99.90;;;;;;5043503;28;20578;-47
2024/03/16 00:34:03;;;;;;;9.33;5.50;;;10.80;99.90;;;;;;5047552;28;20357;-50
2024/03/16 00:36:31;;;;;;;8.67;5.87;;;10.80;99.90;;;;;;5054552;28;20203;-48
2024/03/16 00:38:58;;;;;;;14.57;6.30;;;10.80;99.90;;;;;;5046456;28;20277;-53
2024/03/16 00:41:25;;;;;;;11.30;6.60;;;10.80;99.90;;;;;;5045867;28;20226;-46
2024/03/16 00:43:52;;;;;;;11.83;6.13;;;10.80;99.90;;;;;;5058741;28;20279;-52
2024/03/16 00:46:19;;;;;;;11.37;6.30;;;10.80;99.90;;;;;;5045393;28;23310;-48
2024/03/16 00:48:46;;;;;;;9.90;5.53;;;10.90;99.90;;;;;;5051921;28;20230;-52
2024/03/16 00:51:13;;;;;;;11.57;6.20;;;10.80;99.90;;;;;;5059143;28;20967;-46
2024/03/16 00:53:41;;;;;;;8.30;5.77;;;10.80;99.90;;;;;;5058232;28;20335;-48
2024/03/16 00:56:10;;;;;;;11.20;6.07;;;10.80;99.90;;;;;;5021339;28;20210;-48
2024/03/16 00:58:37;;;;;;;11.20;6.37;;;10.90;99.90;;;;;;5059875;28;20194;-48
2024/03/16 01:01:04;;;;;;;10.33;6.27;;;10.90;99.90;;;;;;5051697;28;20186;-50
2024/03/16 01:03:31;;;;;;;10.20;6.50;;;10.90;99.90;;;;;;5050161;28;20612;-47
2024/03/16 01:05:58;;;;;;;12.20;6.47;;;10.90;99.90;;;;;;5054964;28;20199;-50
2024/03/16 01:08:25;;;;;;;10.13;6.77;;;10.90;99.90;;;;;;5058865;28;20272;-47
2024/03/16 01:10:55;;;;;;;14.03;7.07;;;10.90;99.90;;;;;;5051314;28;20589;-52
2024/03/16 01:13:22;;;;;;;10.50;6.93;;;10.90;99.90;;;;;;5033066;28;20219;-47
2024/03/16 01:15:49;;;;;;;13.30;7.90;;;10.90;99.90;;;;;;5059027;28;20195;-52
2024/03/16 01:18:16;;;;;;;16.43;7.13;;;10.90;99.90;;;;;;5042806;28;20206;-48
2024/03/16 01:20:43;;;;;;;14.00;7.13;;;11.00;99.90;;;;;;5059903;28;20259;-52
2024/03/16 01:23:12;;;;;;;12.60;7.20;;;11.00;99.90;;;;;;5057328;28;20896;-46
2024/03/16 01:25:39;;;;;;;15.23;8.00;;;11.00;99.90;;;;;;5059293;28;20198;-48
2024/03/16 01:28:06;;;;;;;11.30;7.60;;;11.00;99.90;;;;;;5022343;28;20199;-47
2024/03/16 01:30:33;;;;;;;12.17;7.60;;;11.00;99.90;;;;;;5060503;28;20663;-51
2024/03/16 01:33:00;;;;;;;17.07;8.23;;;11.00;99.90;;;;;;5042649;28;20226;-49
2024/03/16 01:35:27;;;;;;;12.67;7.67;;;11.00;99.90;;;;;;5055187;28;20195;-49
2024/03/16 01:37:54;;;;;;;10.90;7.80;;;11.00;99.90;;;;;;5057629;28;20203;-52
2024/03/16 01:40:24;;;;;;;14.27;8.30;;;11.00;99.90;;;;;;5057602;28;20198;-47
2024/03/16 01:42:51;;;;;;;9.70;7.70;;;11.00;99.90;;;;;;5032625;28;20207;-53
2024/03/16 01:45:19;;;;;;;15.87;8.10;;;11.10;99.90;;;;;;5067878;28;20929;-48
2024/03/16 01:47:47;;;;;;;17.00;9.00;;;11.00;99.90;;;;;;5057429;28;20352;-54
2024/03/16 01:50:14;;;;;;;11.73;7.50;;;11.10;99.90;;;;;;5045097;28;20198;-48
2024/03/16 01:52:41;;;;;;;12.87;7.80;;;11.10;99.90;;;;;;5059995;28;20193;-52
2024/03/16 01:55:09;;;;;;;16.93;8.30;;;11.10;99.90;;;;;;5050499;28;20272;-46
2024/03/16 01:57:37;;;;;;;17.03;7.87;;;11.00;99.90;;;;;;5069658;28;20206;-48
2024/03/16 02:00:06;;;;;;;13.53;7.97;;;11.10;99.90;;;;;;5015375;28;20228;-47
2024/03/16 02:02:33;;;;;;;15.17;8.00;;;11.00;99.90;;;;;;5058219;28;20222;-48
2024/03/16 02:05:03;;;;;;;13.47;8.90;;;11.10;99.90;;;;;;5042747;28;20203;-50
2024/03/16 02:07:30;;;;;;;13.10;8.40;;;11.00;99.90;;;;;;5060169;28;20744;-48
2024/03/16 02:09:57;;;;;;;12.57;8.67;;;11.00;99.90;;;;;;5055564;28;20197;-52
2024/03/16 02:12:24;;;;;;;12.93;8.23;;;11.00;99.90;;;;;;5059239;28;20260;-50
2024/03/16 02:14:51;;;;;;;13.00;9.30;;;11.00;99.90;;;;;;5023093;28;20687;-51
2024/03/16 02:17:18;;;;;;;13.83;8.67;;;11.00;99.90;;;;;;5058684;28;20913;-52
2024/03/16 02:19:47;;;;;;;15.07;9.00;;;11.00;99.90;;;;;;5052018;28;20234;-50
2024/03/16 02:22:14;;;;;;;20.13;10.47;;;11.00;99.90;;;;;;5046902;28;20266;-51
2024/03/16 02:24:41;;;;;;;15.73;9.47;;;11.00;99.90;;;;;;5059629;28;20639;-49
2024/03/16 02:27:08;;;;;;;15.50;9.33;;;11.00;99.90;;;;;;5056591;28;20191;-48
2024/03/16 02:29:36;;;;;;;17.20;9.10;;;11.10;99.90;;;;;;5022453;28;20217;-49
2024/03/16 02:32:05;;;;;;;17.23;9.77;;;11.00;99.90;;;;;;5060536;28;20191;-50
2024/03/16 02:34:32;;;;;;;16.07;10.03;;;11.00;99.90;;;;;;5048355;28;20223;-50
2024/03/16 02:37:00;;;;;;;17.73;10.03;;;11.00;99.90;;;;;;5053715;28;20206;-49
2024/03/16 02:39:27;;;;;;;16.23;9.90;;;11.00;99.90;;;;;;5059828;28;20248;-51
2024/03/16 02:41:55;;;;;;;18.80;10.67;;;11.00;99.90;;;;;;5063800;28;20187;-47
2024/03/16 02:44:23;;;;;;;15.23;9.60;;;11.00;99.90;;;;;;5054265;28;20219;-52
2024/03/16 02:46:50;;;;;;;18.27;10.40;;;11.00;99.90;;;;;;5032036;28;20213;-48
2024/03/16 02:49:16;;;;;;;17.83;11.33;;;11.10;99.90;;;;;;5062706;28;20199;-51
2024/03/16 02:51:43;;;;;;;14.93;11.23;;;11.00;99.90;;;;;;5055544;28;20267;-51
2024/03/16 02:54:10;;;;;;;16.67;10.20;;;11.10;99.90;;;;;;5056399;28;20303;-51
2024/03/16 02:56:37;;;;;;;18.60;11.27;;;11.10;99.90;;;;;;5059515;28;20338;-52
2024/03/16 02:59:05;;;;;;;14.20;10.50;;;11.10;99.90;;;;;;5063397;28;20190;-47
2024/03/16 03:01:32;;;;;;;20.40;10.77;;;11.10;99.90;;;;;;5024769;28;20238;-47
2024/03/16 03:03:59;;;;;;;18.00;10.77;;;11.00;99.90;;;;;;5058950;28;20860;-48
2024/03/16 03:06:26;;;;;;;18.20;10.60;;;11.10;99.90;;;;;;5050992;28;20224;-50
2024/03/16 03:08:53;;;;;;;20.67;10.87;;;11.00;99.90;;;;;;5055284;28;20198;-47
2024/03/16 03:11:20;;;;;;;17.70;10.67;;;11.00;99.90;;;;;;5057909;28;20666;-50
2024/03/16 03:13:48;;;;;;;18.37;10.53;;;11.00;99.90;;;;;;5061756;28;20213;-47
2024/03/16 03:16:18;;;;;;;20.17;11.03;;;11.00;99.90;;;;;;5048082;28;20217;-54
2024/03/16 03:18:46;;;;;;;20.87;10.17;;;11.00;99.90;;;;;;5032436;28;20934;-48
2024/03/16 03:21:13;;;;;;;18.00;10.47;;;11.00;99.90;;;;;;5057926;28;20218;-51
2024/03/16 03:23:40;;;;;;;21.23;10.20;;;11.00;99.90;;;;;;5059608;28;21310;-50
2024/03/16 03:26:08;;;;;;;18.07;10.30;;;11.00;99.90;;;;;;5062969;28;20198;-49
2024/03/16 03:28:35;;;;;;;20.17;10.47;;;11.00;99.90;;;;;;5058695;28;20187;-47
2024/03/16 03:31:02;;;;;;;17.97;10.30;;;11.00;99.90;;;;;;5053943;28;20291;-48
2024/03/16 03:33:29;;;;;;;17.67;10.93;;;11.00;99.90;;;;;;5031243;28;20222;-50
2024/03/16 03:35:56;;;;;;;18.20;9.53;;;11.00;99.90;;;;;;5059086;28;20191;-50
2024/03/16 03:38:23;;;;;;;16.57;10.37;;;11.00;99.90;;;;;;5047232;28;20203;-51
2024/03/16 03:40:50;;;;;;;25.00;11.07;;;11.00;99.90;;;;;;5075834;28;20195;-48
2024/03/16 03:43:19;;;;;;;16.27;10.37;;;11.00;99.90;;;;;;5052798;28;20239;-48
2024/03/16 03:45:50;;;;;;;17.27;10.17;;;11.00;99.90;;;;;;5056386;28;20207;-53
2024/03/16 03:48:35;;;;;;;19.90;9.40;;;11.00;99.90;;;;;;5045552;28;20203;-51
2024/03/16 03:51:03;;;;;;;19.23;10.77;;;11.00;99.90;;;;;;5060150;28;20464;-51
2024/03/16 03:53:31;;;;;;;17.60;10.17;;;11.10;99.90;;;;;;5055882;28;20975;-48
2024/03/16 03:55:58;;;;;;;14.67;10.37;;;11.00;99.90;;;;;;5048461;28;20198;-47
2024/03/16 03:58:25;;;;;;;16.63;11.03;;;11.00;99.90;;;;;;5044020;28;20202;-49
2024/03/16 04:00:52;;;;;;;17.90;10.37;;;11.00;99.90;;;;;;5049435;28;20182;-47
2024/03/16 04:03:19;;;;;;;16.63;10.73;;;11.00;99.90;;;;;;5032569;28;20716;-50
2024/03/16 04:05:46;;;;;;;14.43;9.80;;;11.10;99.90;;;;;;5050834;28;20222;-52
2024/03/16 04:08:13;;;;;;;18.80;9.97;;;11.10;99.90;;;;;;5054833;28;20813;-47
2024/03/16 04:10:40;;;;;;;14.83;10.17;;;11.10;99.90;;;;;;5047855;28;20202;-50
2024/03/16 04:13:07;;;;;;;18.07;9.83;;;11.10;99.90;;;;;;5060051;28;20215;-52
2024/03/16 04:15:34;;;;;;;18.27;10.10;;;11.10;99.90;;;;;;5060156;28;20656;-50
2024/03/16 04:18:00;;;;;;;21.40;10.20;;;11.10;99.90;;;;;;5025524;28;20350;-51
2024/03/16 04:20:27;;;;;;;18.77;9.27;;;11.10;99.90;;;;;;5078204;28;20203;-50
2024/03/16 04:22:54;;;;;;;19.03;9.23;;;11.10;99.90;;;;;;5051740;28;20896;-50
2024/03/16 04:25:21;;;;;;;16.43;9.97;;;11.10;99.90;;;;;;5062273;28;20261;-49
2024/03/16 04:27:48;;;;;;;19.13;10.00;;;11.10;99.90;;;;;;5047304;28;20280;-52
2024/03/16 04:30:15;;;;;;;24.47;11.20;;;11.10;99.90;;;;;;5057702;28;20199;-49
2024/03/16 04:32:42;;;;;;;16.57;10.50;;;11.10;99.90;;;;;;5057565;28;20658;-55
2024/03/16 04:35:09;;;;;;;18.40;10.10;;;11.10;99.90;;;;;;5044049;28;20260;-48
2024/03/16 04:37:36;;;;;;;16.10;9.27;;;11.10;99.90;;;;;;5059135;28;20680;-53
2024/03/16 04:40:04;;;;;;;19.40;10.03;;;11.10;99.90;;;;;;5050182;28;20235;-47
2024/03/16 04:42:31;;;;;;;18.57;10.50;;;11.10;99.90;;;;;;5048055;28;20205;-47
2024/03/16 04:44:58;;;;;;;16.03;9.70;;;11.10;99.90;;;;;;5048686;28;20213;-50
2024/03/16 04:47:25;;;;;;;20.10;8.97;;;11.10;99.90;;;;;;5059718;28;20205;-48
2024/03/16 04:49:52;;;;;;;21.27;9.43;;;11.00;99.90;;;;;;5023103;28;21313;-51
2024/03/16 04:52:19;;;;;;;18.23;9.87;;;11.00;99.90;;;;;;5061804;28;20253;-52
2024/03/16 04:54:46;;;;;;;15.93;10.10;;;11.00;99.90;;;;;;5051569;28;20280;-53
2024/03/16 04:57:13;;;;;;;14.97;9.23;;;10.90;99.90;;;;;;5052059;28;20198;-47
2024/03/16 04:59:40;;;;;;;23.73;9.23;;;10.90;99.90;;;;;;5058388;28;20661;-52
2024/03/16 05:02:07;;;;;;;19.30;9.57;;;10.90;99.90;;;;;;5046830;28;20214;-51
2024/03/16 05:04:34;;;;;;;21.00;9.20;;;10.90;99.90;;;;;;5046120;28;20238;-49
2024/03/16 05:07:01;;;;;;;20.23;9.33;;;10.80;99.90;;;;;;5021949;28;20225;-49
2024/03/16 05:09:28;;;;;;;18.27;10.17;;;10.80;99.90;;;;;;5053276;28;20190;-54
2024/03/16 05:11:55;;;;;;;21.43;9.63;;;10.80;99.90;;;;;;5072440;28;20210;-50
2024/03/16 05:14:21;;;;;;;12.03;6.40;;;10.80;99.90;;;;;;5066120;28;20241;-53
2024/03/16 05:16:48;;;;;;;9.60;5.27;;;10.70;99.90;;;;;;5057971;28;20182;-48
2024/03/16 05:19:15;;;;;;;4.77;3.27;;;10.40;99.90;;;;;;5054632;28;20548;-52
2024/03/16 05:21:42;;;;;;;3.63;2.47;;;10.30;99.90;;;;;;5023705;28;20230;-50
2024/03/16 05:24:09;;;;;;;5.00;2.10;;;10.10;99.90;;;;;;5061318;28;20211;-53
2024/03/16 05:26:36;;;;;;;1.93;1.40;;;10.00;99.90;;;;;;5048763;28;20194;-51
2024/03/16 05:29:05;;;;;;;2.37;1.60;;;9.90;99.90;;;;;;5052447;28;20253;-52
2024/03/16 05:31:32;;;;;;;1.67;1.10;;;9.70;99.90;;;;;;5055371;28;20723;-50
2024/03/16 05:34:00;;;;;;;2.67;1.10;;;9.60;99.90;;;;;;5060231;28;20639;-49
2024/03/16 05:36:28;;;;;;;1.23;1.00;;;9.50;99.90;;;;;;5051047;28;20210;-51
2024/03/16 05:38:55;;;;;;;0.97;0.83;;;9.40;99.90;;;;;;5032532;28;20290;-47
2024/03/16 05:41:22;;;;;;;1.90;1.27;;;9.40;99.90;;;;;;5051864;28;20221;-53
2024/03/16 05:43:51;;;;;;;1.10;1.00;;;9.30;99.90;;;;;;5049755;28;21412;-47
2024/03/16 05:46:18;;;;;;;1.67;1.30;;;9.30;99.90;;;;;;5059504;28;20194;-51
2024/03/16 05:48:45;;;;;;;1.87;1.67;;;9.30;99.90;;;;;;5057342;28;20868;-50
2024/03/16 05:51:11;;;;;;;1.50;1.40;;;9.20;99.90;;;;;;5055783;28;20256;-49
2024/03/16 05:53:39;;;;;;;2.03;1.40;;;9.10;99.90;;;;;;5017686;28;20406;-51
2024/03/16 05:56:07;;;;;;;2.07;1.70;;;9.10;99.90;;;;;;5055767;28;20664;-51
2024/03/16 05:58:34;;;;;;;5.10;2.10;;;9.00;99.90;;;;;;5048456;28;20275;-49
2024/03/16 06:01:04;;;;;;;2.83;2.57;;;8.90;99.90;;;;;;5050471;28;20226;-53
2024/03/16 06:03:31;;;;;;;5.10;3.10;;;8.90;99.90;;;;;;5057173;28;20309;-47
2024/03/16 06:05:58;;;;;;;4.00;3.33;;;8.90;99.90;;;;;;5050817;28;20290;-50
2024/03/16 06:08:25;;;;;;;5.30;2.70;;;8.80;99.90;;;;;;5026869;28;21265;-50
2024/03/16 06:10:52;;;;;;;7.53;4.00;;;8.70;99.90;;;;;;5052665;28;20199;-50
2024/03/16 06:13:19;;;;;;;8.27;4.23;;;8.70;99.90;;;;;;5053627;28;21002;-49
2024/03/16 06:15:46;;;;;;;8.07;4.40;;;8.70;99.90;;;;;;5046275;28;20206;-49
2024/03/16 06:18:14;;;;;;;5.87;4.17;;;8.60;99.90;;;;;;5058282;28;20259;-49
2024/03/16 06:20:41;;;;;;;11.57;4.13;;;8.60;99.90;;;;;;5066480;28;20281;-48
2024/03/16 06:23:08;;;;;;;10.47;4.37;;;8.60;99.90;;;;;;5034779;28;20226;-52
2024/03/16 06:25:46;;;;;;;6.23;3.73;;;8.60;99.90;;;;;;5042779;28;21706;-53
2024/03/16 06:28:16;;;;;;;6.63;3.47;;;8.50;99.90;;;;;;5044888;28;20220;-50
2024/03/16 06:30:48;;;;;;;8.10;3.70;;;8.50;99.90;;;;;;5042918;28;20191;-49
2024/03/16 06:33:26;;;;;;;6.67;3.90;;;8.50;99.90;;;;;;5047597;28;20326;-49
2024/03/16 06:35:54;;;;;;;4.17;2.60;;;8.50;99.90;;;;;;5061572;28;23347;-47
2024/03/16 06:38:22;;;;;;;3.87;2.53;;;8.40;99.90;;;;;;5047043;28;21784;-50
2024/03/16 06:40:49;;;;;;;4.30;2.60;;;8.40;99.90;;;;;;5019749;28;20194;-47
2024/03/16 06:43:16;;;;;;;3.70;3.03;;;8.40;99.90;;;;;;5051027;28;20596;-49
2024/03/16 06:45:43;;;;;;;7.17;4.63;;;8.30;99.90;;;;;;5051847;28;20238;-51
2024/03/16 06:48:10;;;;;;;7.03;5.03;;;8.20;99.90;;;;;;5047661;28;20202;-52
2024/03/16 06:50:37;;;;;;;10.53;7.13;;;8.10;99.90;;;;;;5073117;28;20196;-53
2024/03/16 06:53:06;;;;;;;10.63;6.70;;;8.10;99.90;;;;;;5054821;28;20230;-47
2024/03/16 06:55:33;;;;;;;12.70;6.73;;;8.10;99.90;;;;;;5033635;28;20203;-51
2024/03/16 06:58:00;;;;;;;7.20;4.80;;;8.00;99.90;;;;;;5050129;28;20190;-48
2024/03/16 07:00:28;;;;;;;11.23;5.80;;;7.90;99.90;;;;;;5052505;28;20202;-53
2024/03/16 07:02:55;;;;;;;7.80;4.63;;;7.80;99.90;;;;;;5034112;28;20971;-47
2024/03/16 07:05:22;;;;;;;9.17;3.50;;;7.80;99.90;;;;;;5045117;28;20214;-53
2024/03/16 07:07:49;;;;;;;5.70;2.33;;;7.70;99.90;;;;;;5051961;28;20901;-47
2024/03/16 07:10:16;;;;;;;10.70;3.23;;;7.70;99.90;;;;;;5063538;28;20346;-50
2024/03/16 07:12:43;;;;;;;10.37;2.70;;;7.60;99.90;;;;;;5029234;28;20217;-50
2024/03/16 07:15:12;;;;;;;6.87;2.70;;;7.70;99.90;;;;;;5063117;28;20852;-47
2024/03/16 07:17:39;;;;;;;8.97;3.23;;;7.60;99.90;;;;;;5029639;28;20214;-47
2024/03/16 07:20:10;;;;;;;6.87;2.53;;;7.60;99.90;;;;;;5051650;28;20198;-48
2024/03/16 07:22:37;;;;;;;11.00;2.83;;;7.60;99.90;;;;;;5057819;28;20264;-47
2024/03/16 07:25:05;;;;;;;8.90;2.90;;;7.60;99.90;;;;;;5050952;28;20293;-49
2024/03/16 07:27:32;;;;;;;10.17;2.73;;;7.50;99.90;;;;;;5022401;28;20467;-49
2024/03/16 07:29:59;;;;;;;7.63;2.57;;;7.50;99.90;;;;;;5050896;28;20676;-47
2024/03/16 07:32:26;;;;;;;5.37;2.90;;;7.60;99.90;;;;;;5029220;28;20908;-52
2024/03/16 07:34:53;;;;;;;8.57;3.40;;;7.50;99.90;;;;;;5064071;28;20214;-50
2024/03/16 07:37:19;;;;;;;9.27;4.00;;;7.50;99.90;;;;;;5056607;28;20206;-52
2024/03/16 07:39:47;;;;;;;10.40;4.60;;;7.50;99.90;;;;;;5054243;28;20215;-48
2024/03/16 07:42:14;;;;;;;14.67;4.67;;;7.40;99.90;;;;;;5033071;28;20689;-52
2024/03/16 07:44:41;;;;;;;18.20;6.00;;;7.40;99.90;;;;;;5049020;28;20214;-48
2024/03/16 07:47:08;;;;;;;17.23;6.33;;;7.40;99.90;;;;;;5048208;28;20203;-51
2024/03/16 07:49:35;;;;;;;5.90;2.33;;;7.40;99.90;;;;;;5044514;28;20186;-49
2024/03/16 07:52:03;;;;;;;12.17;3.10;;;7.40;99.90;;;;;;5060633;28;20221;-46
2024/03/16 07:54:30;;;;;;;14.53;2.83;;;7.30;99.90;;;;;;5057337;28;20219;-52
2024/03/16 07:56:58;;;;;;;14.60;5.07;;;7.20;99.90;;;;;;5055578;28;20277;-48
2024/03/16 07:59:25;;;;;;;14.60;4.47;;;7.20;99.90;;;;;;5028854;28;20209;-51
2024/03/16 08:01:53;;;;;;;16.87;5.77;;;7.10;99.90;;;;;;5044316;28;20730;-46
2024/03/16 08:04:20;;;;;;;16.07;4.80;;;7.10;99.90;;;;;;5036987;28;20273;-51
2024/03/16 08:06:47;;;;;;;15.00;4.10;;;7.10;99.90;;;;;;5058144;28;20203;-47
2024/03/16 08:09:14;;;;;;;8.53;2.73;;;7.10;99.90;;;;;;5060469;28;20198;-52
2024/03/16 08:11:41;;;;;;;9.13;3.43;;;7.10;99.90;;;;;;5052213;28;20202;-48
2024/03/16 08:14:10;;;;;;;5.60;2.73;;;7.20;99.90;;;;;;5026459;28;20272;-51
2024/03/16 08:16:37;;;;;;;7.33;1.77;;;7.20;99.90;;;;;;5043106;28;20202;-48
2024/03/16 08:19:05;;;;;;;6.37;2.60;;;7.30;99.90;;;;;;5035137;28;20777;-48
2024/03/16 08:21:32;;;;;;;2.67;1.50;;;7.30;99.90;;;;;;5053838;28;20193;-48
2024/03/16 08:24:01;;;;;;;6.00;1.10;;;7.30;99.90;;;;;;5058229;28;20576;-46
2024/03/16 08:26:28;;;;;;;4.73;1.47;;;7.30;99.90;;;;;;5055104;28;20236;-48
2024/03/16 08:28:55;;;;;;;5.03;2.03;;;7.30;99.90;;;;;;5022889;28;20207;-46
2024/03/16 08:31:22;;;;;;;3.83;1.47;;;7.30;99.90;;;;;;5046773;28;20260;-50
2024/03/16 08:33:49;;;;;;;6.83;2.33;;;7.30;99.90;;;;;;5031289;28;20222;-51
2024/03/16 08:36:16;;;;;;;12.17;4.70;;;7.30;99.90;;;;;;5041730;28;20219;-50
2024/03/16 08:38:43;;;;;;;13.10;5.43;;;7.30;99.90;;;;;;5058889;28;20201;-46
2024/03/16 08:41:10;;;;;;;10.80;4.00;;;7.40;99.90;;;;;;5047735;28;20685;-51
2024/03/16 08:43:37;;;;;;;16.13;5.20;;;7.30;99.90;;;;;;5051624;28;20373;-48
2024/03/16 08:46:06;;;;;;;7.17;2.30;;;7.30;99.90;;;;;;5024195;28;20211;-50
2024/03/16 08:48:32;;;;;;;13.37;3.87;;;7.40;99.90;;;;;;5033273;28;20211;-50
2024/03/16 08:51:00;;;;;;;15.67;5.13;;;7.40;99.90;;;;;;5045884;28;20734;-53
2024/03/16 08:53:27;;;;;;;13.30;4.83;;;7.30;99.90;;;;;;5050470;28;20218;-49
2024/03/16 08:55:56;;;;;;;16.93;7.63;;;7.40;99.90;;;;;;5056280;28;20202;-47
2024/03/16 08:58:24;;;;;;;18.63;6.97;;;7.30;99.90;;;;;;5038955;28;20195;-49
2024/03/16 09:00:52;;;;;;;22.17;8.03;;;7.40;99.90;;;;;;5025071;28;20213;-49
2024/03/16 09:03:19;;;;;;;24.23;7.17;;;7.40;99.90;;;;;;5033220;28;20225;-51
2024/03/16 09:05:47;;;;;;;9.50;4.77;;;7.50;99.90;;;;;;5049440;28;20227;-47
2024/03/16 09:08:14;;;;;;;10.43;3.30;;;7.50;99.90;;;;;;5054550;28;20650;-50
2024/03/16 09:10:40;;;;;;;10.87;3.27;;;7.60;99.90;;;;;;5058821;28;20203;-54
2024/03/16 09:13:08;;;;;;;5.97;1.93;;;7.60;99.90;;;;;;5049859;28;20276;-48
2024/03/16 09:15:34;;;;;;;6.23;1.90;;;7.60;99.90;;;;;;5023378;28;20207;-53
2024/03/16 09:18:03;;;;;;;7.17;1.40;;;7.70;99.90;;;;;;5024659;28;20682;-51
2024/03/16 09:20:30;;;;;;;6.83;1.67;;;7.70;99.90;;;;;;5033754;28;21394;-50
2024/03/16 09:22:57;;;;;;;5.00;1.50;;;7.90;99.90;;;;;;5050300;28;20306;-49
2024/03/16 09:25:24;;;;;;;3.17;1.03;;;7.90;99.90;;;;;;5055020;28;20218;-49
2024/03/16 09:27:51;;;;;;;4.50;1.27;;;8.00;99.90;;;;;;5057632;28;20248;-54
2024/03/16 09:30:19;;;;;;;8.17;1.33;;;8.10;99.90;;;;;;5020288;28;20272;-50
2024/03/16 09:32:46;;;;;;;5.50;1.33;;;8.10;99.90;;;;;;5057219;28;20191;-51
2024/03/16 09:35:13;;;;;;;4.97;1.17;;;8.20;99.90;;;;;;5057317;28;20334;-48
2024/03/16 09:37:40;;;;;;;4.40;1.40;;;8.20;99.90;;;;;;5049226;28;20191;-49
2024/03/16 09:40:09;;;;;;;5.00;0.80;;;8.20;99.90;;;;;;5047952;28;20194;-49
2024/03/16 09:42:37;;;;;;;4.47;1.30;;;8.20;99.90;;;;;;5054211;28;20206;-51
2024/03/16 09:45:06;;;;;;;4.73;1.20;;;8.30;99.90;;;;;;5050240;28;21455;-50
2024/03/16 09:47:33;;;;;;;6.03;0.90;;;8.30;99.90;;;;;;5035727;28;20209;-51
2024/03/16 09:50:05;;;;;;;4.33;1.10;;;8.20;99.90;;;;;;5053106;28;20927;-51
2024/03/16 09:52:32;;;;;;;1.87;1.13;;;8.20;99.90;;;;;;5047848;28;20210;-52
2024/03/16 09:54:59;;;;;;;3.77;1.00;;;8.20;99.90;;;;;;5062094;28;20190;-50
2024/03/16 09:57:28;;;;;;;7.97;1.43;;;8.30;99.90;;;;;;5063348;28;20661;-47
2024/03/16 09:59:55;;;;;;;5.53;1.10;;;8.30;99.90;;;;;;5060613;28;20191;-47
2024/03/16 10:02:23;;;;;;;5.83;1.37;;;8.40;99.90;;;;;;5032806;28;20215;-49
2024/03/16 10:04:50;;;;;;;6.30;1.40;;;8.40;99.90;;;;;;5041373;28;20223;-47
2024/03/16 10:07:17;;;;;;;4.50;1.30;;;8.50;99.90;;;;;;5056879;28;20209;-49
2024/03/16 10:09:53;;;;;;;6.37;1.50;;;8.50;99.90;;;;;;5052599;28;20327;-52
2024/03/16 10:12:21;;;;;;;7.27;1.20;;;8.40;99.90;;;;;;5046915;28;20289;-47
2024/03/16 10:15:08;;;;;;;6.53;2.13;;;8.30;99.90;;;;;;5058542;28;20752;-47
2024/03/16 10:17:36;;;;;;;3.47;1.57;;;8.40;99.90;;;;;;5030376;28;20206;-53
2024/03/16 10:20:06;;;;;;;7.77;1.50;;;8.40;99.90;;;;;;5063712;28;20278;-50
2024/03/16 10:22:34;;;;;;;5.87;1.27;;;8.40;99.90;;;;;;5053461;28;20230;-52
2024/03/16 10:25:09;;;;;;;4.03;1.07;;;8.50;99.90;;;;;;5052280;28;20417;-49
2024/03/16 10:27:38;;;;;;;5.30;1.20;;;8.60;99.90;;;;;;5061108;28;20190;-52
2024/03/16 10:30:08;;;;;;;6.30;1.80;;;8.70;99.90;;;;;;5063430;28;20175;-50
2024/03/16 10:32:37;;;;;;;3.87;1.23;;;8.80;99.90;;;;;;5046532;28;20206;-53
2024/03/16 10:35:07;;;;;;;6.00;1.20;;;8.80;99.90;;;;;;5067094;28;20206;-49
2024/03/16 10:37:38;;;;;;;5.63;1.63;;;8.70;99.90;;;;;;5053218;28;20276;-49
2024/03/16 10:40:13;;;;;;;8.67;1.40;;;8.80;99.90;;;;;;5044605;28;20700;-47
2024/03/16 10:42:43;;;;;;;8.97;1.70;;;8.90;99.90;;;;;;5059804;28;20193;-50
2024/03/16 10:45:13;;;;;;;5.97;1.77;;;8.90;99.90;;;;;;5061012;28;20261;-49
2024/03/16 10:47:42;;;;;;;6.17;0.97;;;9.00;99.90;;;;;;5046122;28;20199;-51
2024/03/16 10:50:10;;;;;;;7.47;1.43;;;9.10;99.90;;;;;;5035577;28;20217;-49
2024/03/16 10:52:38;;;;;;;8.23;1.67;;;9.20;99.90;;;;;;5054331;28;20198;-52
2024/03/16 10:55:07;;;;;;;3.57;1.20;;;9.30;99.90;;;;;;5038445;28;20214;-49
2024/03/16 10:57:37;;;;;;;6.47;1.60;;;9.30;99.90;;;;;;5058203;28;20225;-51
2024/03/16 11:00:12;;;;;;;5.17;1.33;;;9.40;99.90;;;;;;5060088;28;20201;-49
2024/03/16 11:02:47;;;;;;;7.20;1.10;;;9.40;99.90;;;;;;5053230;28;20197;-52
2024/03/16 11:05:32;;;;;;;6.53;1.60;;;9.30;99.90;;;;;;5046542;28;20703;-49
2024/03/16 11:08:00;;;;;;;6.67;1.40;;;9.20;99.90;;;;;;5049162;28;20201;-48
2024/03/16 11:10:38;;;;;;;4.00;1.40;;;9.30;99.90;;;;;;5051125;28;21047;-47
2024/03/16 11:13:13;;;;;;;5.07;1.33;;;9.30;99.90;;;;;;5047019;28;20246;-50
2024/03/16 11:15:40;;;;;;;5.63;1.07;;;9.30;99.90;;;;;;5041439;28;20715;-49
2024/03/16 11:18:43;;;;;;;10.20;1.30;;;9.40;99.90;;;;;;5053663;28;20206;-48
2024/03/16 11:21:16;;;;;;;6.07;1.27;;;9.50;99.90;;;;;;5063202;28;20268;-48
2024/03/16 11:23:44;;;;;;;7.17;1.70;;;9.40;99.90;;;;;;5048825;28;20227;-50
2024/03/16 11:26:44;;;;;;;6.80;1.83;;;9.50;99.90;;;;;;5062556;28;20218;-49
2024/03/16 11:29:18;;;;;;;4.70;1.50;;;9.60;99.90;;;;;;5072076;28;20195;-52
2024/03/16 11:31:46;;;;;;;6.13;1.60;;;9.70;99.90;;;;;;5056563;28;20195;-47
2024/03/16 11:34:13;;;;;;;8.90;1.87;;;9.60;99.90;;;;;;5051974;28;20232;-47
2024/03/16 11:36:44;;;;;;;7.57;1.90;;;9.50;99.90;;;;;;5027031;28;20491;-47
2024/03/16 11:39:11;;;;;;;8.77;1.17;;;9.40;99.90;;;;;;5053998;28;20202;-48
2024/03/16 11:41:44;;;;;;;11.03;1.60;;;9.40;99.90;;;;;;5058756;28;20831;-49
2024/03/16 11:44:12;;;;;;;7.80;1.80;;;9.30;99.90;;;;;;5034910;28;20233;-53
2024/03/16 11:46:40;;;;;;;6.83;1.43;;;9.40;99.90;;;;;;5058300;28;20223;-53
2024/03/16 11:49:09;;;;;;;9.17;2.33;;;9.40;99.90;;;;;;5047136;28;20234;-49
2024/03/16 11:51:37;;;;;;;8.37;2.43;;;9.40;99.90;;;;;;5030551;28;20577;-51
2024/03/16 11:54:03;;;;;;;7.27;1.53;;;9.40;99.90;;;;;;5060988;28;20232;-47
2024/03/16 11:56:30;;;;;;;8.57;1.80;;;9.40;99.90;;;;;;5051196;28;20207;-49
2024/03/16 11:58:57;;;;;;;7.20;1.67;;;9.30;99.90;;;;;;5052830;28;20222;-47
2024/03/16 12:01:24;;;;;;;13.47;1.83;;;9.10;99.90;;;;;;5061252;28;20665;-50
2024/03/16 12:03:51;;;;;;;9.20;1.83;;;9.00;99.90;;;;;;5055951;28;20309;-48
2024/03/16 12:06:18;;;;;;;11.30;2.10;;;8.90;99.90;;;;;;5024870;28;20229;-50
2024/03/16 12:08:45;;;;;;;13.40;2.13;;;8.90;99.90;;;;;;5053189;28;20944;-49
2024/03/16 12:11:12;;;;;;;10.10;2.60;;;8.90;99.90;;;;;;5049558;28;20209;-50
2024/03/16 12:13:38;;;;;;;10.67;1.73;;;8.90;99.90;;;;;;5057629;28;20218;-51
2024/03/16 12:16:05;;;;;;;7.40;2.40;;;8.90;99.90;;;;;;5053408;28;20194;-55
2024/03/16 12:18:31;;;;;;;9.60;1.77;;;8.90;99.90;;;;;;5058842;28;20198;-53
2024/03/16 12:20:58;;;;;;;9.27;1.90;;;8.90;99.90;;;;;;5032022;28;20214;-47
2024/03/16 12:23:24;;;;;;;7.07;1.83;;;8.90;99.90;;;;;;5060572;28;20219;-50
2024/03/16 12:25:53;;;;;;;7.40;1.63;;;8.90;99.90;;;;;;5049192;28;20307;-48
2024/03/16 12:28:19;;;;;;;10.80;2.10;;;8.90;99.90;;;;;;5061031;28;20267;-49
2024/03/16 12:30:46;;;;;;;13.90;2.13;;;8.90;99.90;;;;;;5050465;28;20207;-51
2024/03/16 12:33:12;;;;;;;11.37;1.83;;;9.00;99.90;;;;;;5061323;28;20359;-49
2024/03/16 12:35:40;;;;;;;8.67;2.10;;;9.00;99.90;;;;;;5056892;28;20194;-53
2024/03/16 12:38:08;;;;;;;8.57;1.80;;;9.00;99.90;;;;;;5032848;28;20210;-50
2024/03/16 12:40:35;;;;;;;8.93;2.27;;;9.00;99.90;;;;;;5057245;28;20207;-48
2024/03/16 12:43:01;;;;;;;7.33;2.07;;;8.90;99.90;;;;;;5050414;28;20218;-53
2024/03/16 12:45:28;;;;;;;9.27;1.60;;;8.80;99.90;;;;;;5058689;28;20205;-47
2024/03/16 12:47:55;;;;;;;9.27;1.73;;;8.80;99.90;;;;;;5053628;28;20202;-49
2024/03/16 12:50:22;;;;;;;11.97;1.77;;;8.80;99.90;;;;;;5056139;28;20225;-47